Time;durP1;ratioP1;P1;durP2;ratioP2;P2;SDS_P1;SDS_P2;PMS_P1;PMS_P2;Temp;Humidity;BMP_temperature;BMP_pressure;BME280_temperature;BME280_humidity;BME280_pressure;Samples;Min_cycle;Max_cycle;Signal;HPM_P1;HPM_P2
2022/10/06 00:01:35;;;;;;;;;;;;;;;13.61;56.58;101141.25;5000144;28;19949;-71
2022/10/06 00:04:00;;;;;;;;;;;;;;;13.57;57.40;101135.38;5000372;28;20347;-71
2022/10/06 00:06:26;;;;;;;;;;;;;;;13.47;58.25;101142.53;4999352;28;20119;-71
2022/10/06 00:08:51;;;;;;;;;;;;;;;13.53;58.08;101139.31;5000955;28;19922;-71
2022/10/06 00:11:16;;;;;;;;;;;;;;;13.61;57.80;101141.25;5001949;28;19921;-71
2022/10/06 00:13:42;;;;;;;;;;;;;;;13.51;58.13;101127.97;4999508;28;19957;-71
2022/10/06 00:16:11;;;;;;;;;;;;;;;13.56;58.22;101130.22;5001148;28;20266;-71
2022/10/06 00:18:36;;;;;;;;;;;;;;;13.47;58.22;101123.91;5002050;28;20195;-71
2022/10/06 00:21:03;;;;;;;;;;;;;;;13.45;58.63;101120.56;4990087;28;19949;-71
2022/10/06 00:23:28;;;;;;;;;;;;;;;13.45;59.00;101122.38;4999440;28;19985;-71
2022/10/06 00:25:53;;;;;;;;;;;;;;;13.41;58.77;101128.00;4999901;28;20093;-71
2022/10/06 00:28:19;;;;;;;;;;;;;;;13.43;58.41;101122.53;4998950;28;19934;-71
2022/10/06 00:30:45;;;;;;;;;;;;;;;13.43;58.71;101126.03;5001678;28;19918;-71
2022/10/06 00:33:11;;;;;;;;;;;;;;;13.34;58.99;101116.28;5000504;28;19926;-71
2022/10/06 00:35:37;;;;;;;;;;;;;;;13.33;59.47;101119.09;4999018;28;19924;-71
2022/10/06 00:38:02;;;;;;;;;;;;;;;13.31;59.10;101118.38;4999001;28;19921;-71
2022/10/06 00:40:28;;;;;;;;;;;;;;;13.19;59.46;101123.06;4999984;28;19918;-71
2022/10/06 00:42:53;;;;;;;;;;;;;;;13.17;59.57;101119.69;4999039;28;20203;-71
2022/10/06 00:45:37;;;;;;;;;;;;;;;13.15;59.68;101118.97;4999123;28;19921;-71
2022/10/06 00:48:06;;;;;;;;;;;;;;;13.07;59.58;101118.88;5001078;28;19929;-71
2022/10/06 00:50:32;;;;;;;;;;;;;;;12.97;60.25;101110.06;5001593;28;19944;-71
2022/10/06 00:52:57;;;;;;;;;;;;;;;12.96;60.26;101119.03;4999394;28;19921;-71
2022/10/06 00:55:22;;;;;;;;;;;;;;;13.00;60.07;101117.75;4998898;28;19917;-71
2022/10/06 00:57:49;;;;;;;;;;;;;;;12.95;60.65;101114.69;5000129;28;19918;-71
2022/10/06 01:00:14;;;;;;;;;;;;;;;12.95;60.44;101115.53;4998801;28;19917;-71
2022/10/06 01:02:53;;;;;;;;;;;;;;;12.89;60.29;101105.47;4999819;28;19981;-71
2022/10/06 01:05:24;;;;;;;;;;;;;;;12.90;60.52;101115.13;4999722;28;20203;-71
2022/10/06 01:07:50;;;;;;;;;;;;;;;12.94;60.67;101121.00;4999379;28;19918;-71
2022/10/06 01:10:15;;;;;;;;;;;;;;;12.85;60.74;101120.03;4999418;28;19956;-71
2022/10/06 01:12:40;;;;;;;;;;;;;;;12.87;60.44;101123.41;4982139;28;19918;-71
2022/10/06 01:15:06;;;;;;;;;;;;;;;12.84;59.97;101115.72;5001356;28;20119;-71
2022/10/06 01:17:35;;;;;;;;;;;;;;;12.77;58.06;101123.41;5000320;28;19913;-71
2022/10/06 01:20:08;;;;;;;;;;;;;;;12.73;58.59;101122.03;4999509;28;20013;-71
2022/10/06 01:22:36;;;;;;;;;;;;;;;12.45;60.12;101114.88;4999560;28;20341;-71
2022/10/06 01:25:03;;;;;;;;;;;;;;;12.37;60.55;101122.72;4998070;28;19922;-71
2022/10/06 01:27:29;;;;;;;;;;;;;;;12.31;58.60;101113.50;4995400;28;19917;-71
2022/10/06 01:29:55;;;;;;;;;;;;;;;12.13;60.34;101115.16;4999200;28;19921;-71
2022/10/06 01:32:22;;;;;;;;;;;;;;;12.00;60.66;101111.94;4998642;28;19918;-71
2022/10/06 01:34:47;;;;;;;;;;;;;;;12.09;60.37;101109.28;5003111;28;19929;-71
2022/10/06 01:37:13;;;;;;;;;;;;;;;12.20;60.91;101116.28;5002126;28;19953;-71
2022/10/06 01:39:38;;;;;;;;;;;;;;;12.18;61.61;101112.94;5005358;28;19922;-71
2022/10/06 01:42:04;;;;;;;;;;;;;;;12.22;61.86;101109.03;5002710;28;19991;-71
2022/10/06 01:44:29;;;;;;;;;;;;;;;12.15;62.63;101118.53;5002957;28;19998;-71
2022/10/06 01:46:54;;;;;;;;;;;;;;;12.14;62.79;101116.84;5001798;28;19928;-71
2022/10/06 01:49:19;;;;;;;;;;;;;;;12.23;62.75;101118.66;5002880;28;19996;-71
2022/10/06 01:51:46;;;;;;;;;;;;;;;12.11;63.37;101115.31;5001531;28;20193;-71
2022/10/06 01:54:11;;;;;;;;;;;;;;;12.19;62.86;101109.31;4988265;28;19960;-71
2022/10/06 01:56:37;;;;;;;;;;;;;;;12.33;62.76;101105.38;5002439;28;19917;-71
2022/10/06 01:59:02;;;;;;;;;;;;;;;11.91;64.10;101102.16;5001866;28;20021;-70
2022/10/06 02:01:27;;;;;;;;;;;;;;;11.91;64.55;101100.34;5002517;28;19917;-71
2022/10/06 02:03:53;;;;;;;;;;;;;;;12.10;63.61;101097.69;4985098;28;19928;-71
2022/10/06 02:06:18;;;;;;;;;;;;;;;12.17;63.42;101097.13;5002346;28;19918;-71
2022/10/06 02:08:43;;;;;;;;;;;;;;;12.25;62.39;101100.78;5001870;28;19934;-70
2022/10/06 02:11:09;;;;;;;;;;;;;;;12.32;61.96;101099.25;5001469;28;19925;-71
2022/10/06 02:13:35;;;;;;;;;;;;;;;12.35;61.36;101096.31;5002423;28;19921;-71
2022/10/06 02:16:01;;;;;;;;;;;;;;;12.36;61.77;101097.97;5001384;28;20085;-71
2022/10/06 02:18:26;;;;;;;;;;;;;;;12.32;61.95;101099.25;5004213;28;19922;-71
2022/10/06 02:20:52;;;;;;;;;;;;;;;12.24;61.49;101099.09;5004114;28;19952;-71
2022/10/06 02:23:17;;;;;;;;;;;;;;;12.20;62.41;101110.97;5000972;28;19929;-71
2022/10/06 02:25:43;;;;;;;;;;;;;;;12.18;61.79;101112.09;5001432;28;19937;-71
2022/10/06 02:28:08;;;;;;;;;;;;;;;12.17;62.19;101108.59;5001517;28;19922;-71
2022/10/06 02:30:35;;;;;;;;;;;;;;;12.24;61.85;101111.53;5001095;28;19933;-70
2022/10/06 02:33:00;;;;;;;;;;;;;;;12.13;61.41;101109.84;5002084;28;19921;-71
2022/10/06 02:35:25;;;;;;;;;;;;;;;12.13;61.79;101107.19;5002829;28;20253;-71
2022/10/06 02:37:51;;;;;;;;;;;;;;;11.86;62.66;101107.03;5003470;28;20207;-71
2022/10/06 02:40:16;;;;;;;;;;;;;;;11.73;63.38;101116.06;5000667;28;19918;-71
2022/10/06 02:42:41;;;;;;;;;;;;;;;11.77;62.68;101111.31;5004089;28;19914;-71
2022/10/06 02:45:07;;;;;;;;;;;;;;;11.80;61.99;101109.25;5003271;28;19914;-71
2022/10/06 02:47:33;;;;;;;;;;;;;;;11.83;62.19;101110.81;5000549;28;19918;-71
2022/10/06 02:50:00;;;;;;;;;;;;;;;11.79;62.01;101106.75;5002195;28;19922;-71
2022/10/06 02:52:36;;;;;;;;;;;;;;;11.90;61.98;101111.09;5003267;28;20008;-70
2022/10/06 02:55:03;;;;;;;;;;;;;;;11.79;62.26;101118.19;5000453;28;20211;-71
2022/10/06 02:57:28;;;;;;;;;;;;;;;11.82;61.55;101115.25;5001224;28;20088;-70
2022/10/06 02:59:53;;;;;;;;;;;;;;;11.70;61.31;101115.50;5003496;28;19928;-70
2022/10/06 03:02:19;;;;;;;;;;;;;;;11.74;62.05;101119.53;5002192;28;20193;-70
2022/10/06 03:04:44;;;;;;;;;;;;;;;11.69;61.67;101113.81;5000890;28;19985;-71
2022/10/06 03:07:09;;;;;;;;;;;;;;;11.64;61.89;101116.88;5001394;28;20155;-70
2022/10/06 03:09:35;;;;;;;;;;;;;;;11.63;62.20;101122.31;5000496;28;20207;-70
2022/10/06 03:12:00;;;;;;;;;;;;;;;11.63;62.19;101117.00;4985283;28;20682;-70
2022/10/06 03:14:25;;;;;;;;;;;;;;;11.60;61.90;101112.81;5000591;28;20219;-71
2022/10/06 03:16:51;;;;;;;;;;;;;;;11.47;62.55;101115.69;5000334;28;20199;-70
2022/10/06 03:19:16;;;;;;;;;;;;;;;11.57;62.78;101113.06;5001362;28;19935;-70
2022/10/06 03:21:42;;;;;;;;;;;;;;;11.55;62.88;101111.53;5000139;28;19918;-70
2022/10/06 03:24:08;;;;;;;;;;;;;;;11.50;61.79;101112.78;4997605;28;19921;-70
2022/10/06 03:26:35;;;;;;;;;;;;;;;11.43;62.68;101114.25;5000890;28;19918;-70
2022/10/06 03:29:01;;;;;;;;;;;;;;;11.39;62.40;101107.53;5000691;28;19930;-71
2022/10/06 03:31:27;;;;;;;;;;;;;;;11.30;62.56;101110.16;4984013;28;19925;-71
2022/10/06 03:33:55;;;;;;;;;;;;;;;11.28;62.44;101106.81;4999536;28;20237;-71
2022/10/06 03:36:22;;;;;;;;;;;;;;;11.23;61.32;101107.19;5000476;28;19918;-71
2022/10/06 03:38:47;;;;;;;;;;;;;;;11.18;62.25;101104.09;4999277;28;19988;-71
2022/10/06 03:41:14;;;;;;;;;;;;;;;11.30;61.46;101104.84;4999454;28;20147;-71
2022/10/06 03:43:41;;;;;;;;;;;;;;;11.30;60.94;101094.25;5000215;28;19921;-71
2022/10/06 03:46:06;;;;;;;;;;;;;;;11.21;60.30;101101.19;5001047;28;19917;-71
2022/10/06 03:48:33;;;;;;;;;;;;;;;11.17;60.13;101103.28;5001113;28;19925;-71
2022/10/06 03:50:59;;;;;;;;;;;;;;;11.08;60.26;101098.75;4999516;28;19918;-71
2022/10/06 03:53:27;;;;;;;;;;;;;;;11.07;61.60;101096.25;5000845;28;19933;-71
2022/10/06 03:56:10;;;;;;;;;;;;;;;11.11;62.07;101098.50;4999271;28;19965;-71
2022/10/06 03:58:36;;;;;;;;;;;;;;;11.06;63.71;101098.06;5000477;28;19953;-71
2022/10/06 04:01:04;;;;;;;;;;;;;;;11.06;64.55;101100.72;4985211;28;19941;-71
2022/10/06 04:03:30;;;;;;;;;;;;;;;11.26;64.14;101101.63;5000697;28;19922;-71
2022/10/06 04:05:56;;;;;;;;;;;;;;;11.37;63.88;101093.56;4999462;28;19925;-71
2022/10/06 04:08:22;;;;;;;;;;;;;;;11.34;64.15;101090.34;5001564;28;20084;-71
2022/10/06 04:10:48;;;;;;;;;;;;;;;11.41;63.80;101088.84;5001906;28;19953;-71
2022/10/06 04:13:17;;;;;;;;;;;;;;;11.49;63.58;101089.03;5000051;28;19941;-71
2022/10/06 04:15:43;;;;;;;;;;;;;;;11.56;64.10;101094.66;4996947;28;19924;-71
2022/10/06 04:18:09;;;;;;;;;;;;;;;11.46;63.88;101092.81;4999657;28;19945;-71
2022/10/06 04:20:35;;;;;;;;;;;;;;;11.51;63.12;101095.06;5001878;28;20219;-71
2022/10/06 04:23:00;;;;;;;;;;;;;;;11.49;63.46;101091.69;4999657;28;19921;-71
2022/10/06 04:25:25;;;;;;;;;;;;;;;11.42;64.60;101091.38;4999924;28;20323;-70
2022/10/06 04:27:52;;;;;;;;;;;;;;;11.57;64.25;101091.84;4999027;28;20180;-71
2022/10/06 04:30:17;;;;;;;;;;;;;;;11.55;63.38;101096.47;4998847;28;19964;-71
2022/10/06 04:32:44;;;;;;;;;;;;;;;11.49;63.54;101089.88;5000066;28;19922;-71
2022/10/06 04:35:09;;;;;;;;;;;;;;;11.54;63.65;101093.94;4998944;28;19979;-71
2022/10/06 04:37:35;;;;;;;;;;;;;;;11.31;64.11;101087.97;4999987;28;20207;-71
2022/10/06 04:40:00;;;;;;;;;;;;;;;11.41;64.65;101088.84;4998778;28;19961;-71
2022/10/06 04:42:28;;;;;;;;;;;;;;;11.24;64.65;101089.47;4998993;28;19925;-71
2022/10/06 04:44:53;;;;;;;;;;;;;;;11.37;65.05;101096.22;5000201;28;20089;-70
2022/10/06 04:47:19;;;;;;;;;;;;;;;11.25;64.74;101086.69;4999487;28;19980;-71
2022/10/06 04:49:44;;;;;;;;;;;;;;;11.36;65.38;101096.38;4999406;28;20195;-71
2022/10/06 04:52:09;;;;;;;;;;;;;;;11.54;64.58;101092.13;5000414;28;20257;-71
2022/10/06 04:54:35;;;;;;;;;;;;;;;11.65;63.75;101091.19;4999947;28;20210;-71
2022/10/06 04:57:00;;;;;;;;;;;;;;;11.67;63.60;101090.06;4999557;28;19918;-71
2022/10/06 05:00:21;;;;;;;;;;;;;;;11.60;63.68;101088.94;4998798;28;20050;-71
2022/10/06 05:02:11;;;;;;;;;;;;;;;11.58;63.70;101093.53;4998596;28;19926;-70
2022/10/06 05:04:36;;;;;;;;;;;;;;;11.35;64.26;101086.72;4998094;28;19928;-71
2022/10/06 05:07:01;;;;;;;;;;;;;;;11.65;63.32;101085.88;5001574;28;19949;-70
2022/10/06 05:09:27;;;;;;;;;;;;;;;11.73;63.10;101092.16;5003699;28;19922;-70
2022/10/06 05:11:52;;;;;;;;;;;;;;;11.73;63.92;101094.81;5002522;28;20269;-70
2022/10/06 05:14:17;;;;;;;;;;;;;;;11.90;62.96;101093.34;5003547;28;20127;-71
2022/10/06 05:16:43;;;;;;;;;;;;;;;11.92;62.79;101087.91;4991940;28;19949;-70
2022/10/06 05:19:08;;;;;;;;;;;;;;;11.91;62.76;101110.13;5004512;28;19934;-71
2022/10/06 05:21:34;;;;;;;;;;;;;;;11.94;62.72;101102.72;5002464;28;19922;-71
2022/10/06 05:23:59;;;;;;;;;;;;;;;12.01;62.90;101109.16;5003427;28;19960;-71
2022/10/06 05:26:27;;;;;;;;;;;;;;;11.91;63.15;101110.13;5001866;28;19964;-71
2022/10/06 05:28:52;;;;;;;;;;;;;;;12.18;62.95;101101.47;4978948;28;20237;-71
2022/10/06 05:31:19;;;;;;;;;;;;;;;12.26;62.33;101107.75;4983672;28;19919;-70
2022/10/06 05:33:44;;;;;;;;;;;;;;;12.34;62.17;101109.72;4982824;28;19929;-71
2022/10/06 05:36:17;;;;;;;;;;;;;;;12.27;62.96;101111.25;4983607;28;19918;-71
2022/10/06 05:38:42;;;;;;;;;;;;;;;12.46;62.32;101116.56;4983169;28;19922;-71
2022/10/06 05:41:18;;;;;;;;;;;;;;;12.63;62.31;101115.03;4982699;28;19960;-71
2022/10/06 05:43:44;;;;;;;;;;;;;;;13.04;60.97;101119.16;4979447;28;19922;-71
2022/10/06 05:46:16;;;;;;;;;;;;;;;13.45;60.00;101115.25;4983033;28;20001;-71
2022/10/06 05:48:41;;;;;;;;;;;;;;;13.36;59.73;101118.78;4982357;28;19934;-71
2022/10/06 05:51:07;;;;;;;;;;;;;;;13.52;59.11;101115.50;4981202;28;20272;-71
2022/10/06 05:53:34;;;;;;;;;;;;;;;13.78;58.81;101127.16;4982842;28;19937;-71
2022/10/06 05:56:13;;;;;;;;;;;;;;;13.92;58.43;101133.78;4982087;28;20211;-71
2022/10/06 05:58:40;;;;;;;;;;;;;;;13.91;58.52;101129.44;4982367;28;19922;-71
2022/10/06 06:01:12;;;;;;;;;;;;;;;14.10;58.09;101131.97;4979581;28;20250;-71
2022/10/06 06:03:39;;;;;;;;;;;;;;;14.38;57.28;101130.09;4983020;28;19925;-71
2022/10/06 06:06:13;;;;;;;;;;;;;;;14.58;56.51;101130.81;4981893;28;20110;-71
2022/10/06 06:08:38;;;;;;;;;;;;;;;14.62;56.63;101133.03;4982435;28;20076;-71
2022/10/06 06:11:05;;;;;;;;;;;;;;;14.70;56.15;101129.59;4982918;28;19926;-71
2022/10/06 06:13:30;;;;;;;;;;;;;;;15.04;55.68;101134.16;4981932;28;20198;-71
2022/10/06 06:16:03;;;;;;;;;;;;;;;15.09;55.53;101139.84;4980714;28;19994;-71
2022/10/06 06:18:28;;;;;;;;;;;;;;;15.40;55.40;101137.50;4982476;28;19923;-71
2022/10/06 06:20:58;;;;;;;;;;;;;;;15.62;54.39;101134.34;4981629;28;19930;-71
2022/10/06 06:23:24;;;;;;;;;;;;;;;15.47;54.44;101136.72;4982120;28;19922;-71
2022/10/06 06:25:59;;;;;;;;;;;;;;;15.41;54.61;101137.34;4982608;28;20224;-71
2022/10/06 06:28:25;;;;;;;;;;;;;;;15.57;54.72;101134.78;4985122;28;19922;-71
2022/10/06 06:30:57;;;;;;;;;;;;;;;15.88;53.74;101132.44;5000756;28;19924;-71
2022/10/06 06:33:23;;;;;;;;;;;;;;;15.85;53.54;101138.09;4997146;28;19976;-71
2022/10/06 06:35:48;;;;;;;;;;;;;;;15.86;53.46;101139.75;5004402;28;20073;-71
2022/10/06 06:38:13;;;;;;;;;;;;;;;15.88;53.42;101142.28;5004476;28;19963;-72
2022/10/06 06:40:40;;;;;;;;;;;;;;;16.29;51.56;101136.00;5000803;28;19913;-71
2022/10/06 06:43:05;;;;;;;;;;;;;;;16.01;51.95;101136.47;5001882;28;19930;-71
2022/10/06 06:45:30;;;;;;;;;;;;;;;15.90;53.10;101140.28;5003111;28;19940;-71
2022/10/06 06:47:56;;;;;;;;;;;;;;;16.14;52.15;101140.34;5003367;28;19922;-71
2022/10/06 06:50:21;;;;;;;;;;;;;;;16.48;52.54;101131.34;5000519;28;19910;-70
2022/10/06 06:52:46;;;;;;;;;;;;;;;16.68;50.58;101122.06;5000973;28;19929;-69
2022/10/06 06:55:11;;;;;;;;;;;;;;;16.81;50.10;101129.56;5000716;28;19924;-69
2022/10/06 06:57:37;;;;;;;;;;;;;;;16.82;49.05;101126.72;5001536;28;20076;-72
2022/10/06 07:00:04;;;;;;;;;;;;;;;16.67;50.29;101128.41;5000360;28;20662;-70
2022/10/06 07:02:30;;;;;;;;;;;;;;;16.55;49.92;101133.19;5000602;28;19913;-69
2022/10/06 07:04:55;;;;;;;;;;;;;;;16.65;49.29;101135.75;5001648;28;19921;-69
2022/10/06 07:07:20;;;;;;;;;;;;;;;16.42;49.69;101132.84;5000242;28;19949;-69
2022/10/06 07:09:46;;;;;;;;;;;;;;;17.01;49.01;101132.72;4999927;28;19922;-69
2022/10/06 07:12:11;;;;;;;;;;;;;;;16.98;48.50;101127.69;4999999;28;20243;-69
2022/10/06 07:25:05;;;;;;;;;;;;;;;16.95;48.24;101122.69;4999380;28;19938;-69
2022/10/06 07:25:34;;;;;;;;;;;;;;;17.59;47.05;101107.41;4999564;28;19925;-69
2022/10/06 07:27:59;;;;;;;;;;;;;;;17.50;46.78;101112.81;4999084;28;19929;-69
2022/10/06 07:30:26;;;;;;;;;;;;;;;17.63;46.13;101109.56;4998439;28;20123;-69
2022/10/06 07:32:51;;;;;;;;;;;;;;;17.79;46.06;101108.72;4999257;28;19918;-69
2022/10/06 07:35:18;;;;;;;;;;;;;;;17.91;45.47;101101.13;4998974;28;19925;-69
2022/10/06 07:37:44;;;;;;;;;;;;;;;18.25;44.76;101101.56;4999194;28;19918;-69
2022/10/06 07:40:09;;;;;;;;;;;;;;;18.16;44.48;101099.94;4998943;28;20115;-69
2022/10/06 07:42:47;;;;;;;;;;;;;;;18.06;44.89;101086.78;4999825;28;19918;-69
2022/10/06 07:47:57;;;;;;;;;;;;;;;18.18;44.69;101095.25;4999654;28;20115;-69
2022/10/06 07:50:24;;;;;;;;;;;;;;;18.44;44.14;101087.66;4998730;28;19925;-69
2022/10/06 07:52:50;;;;;;;;;;;;;;;18.82;43.27;101079.66;4998996;28;20226;-69
2022/10/06 07:55:17;;;;;;;;;;;;;;;18.72;43.17;101071.00;4999197;28;19974;-69
2022/10/06 07:57:45;;;;;;;;;;;;;;;18.86;42.68;101064.84;4999179;28;19989;-69
2022/10/06 08:00:14;;;;;;;;;;;;;;;18.73;42.26;101065.50;4998543;28;20240;-69
2022/10/06 08:02:39;;;;;;;;;;;;;;;19.08;41.14;101061.25;4998808;28;20221;-69
2022/10/06 08:05:05;;;;;;;;;;;;;;;19.54;40.50;101057.53;4998633;28;19931;-69
2022/10/06 08:07:31;;;;;;;;;;;;;;;19.49;40.63;101060.75;4999006;28;19933;-69
2022/10/06 08:09:56;;;;;;;;;;;;;;;19.49;40.44;101059.91;4998133;28;19929;-69
2022/10/06 08:12:36;;;;;;;;;;;;;;;19.00;40.88;101057.81;4998558;28;19926;-69
2022/10/06 08:15:01;;;;;;;;;;;;;;;19.69;39.47;101053.78;4996672;28;19926;-69
2022/10/06 08:17:27;;;;;;;;;;;;;;;20.00;39.65;101050.81;4996556;28;19917;-69
2022/10/06 08:19:53;;;;;;;;;;;;;;;19.75;39.52;101050.34;4997028;28;20207;-69
2022/10/06 08:22:18;;;;;;;;;;;;;;;19.66;39.94;101054.16;4999147;28;19984;-69
2022/10/06 08:24:44;;;;;;;;;;;;;;;20.00;39.29;101053.50;4998417;28;20904;-69
2022/10/06 08:27:09;;;;;;;;;;;;;;;20.18;38.61;101055.75;4998810;28;19918;-69
2022/10/06 08:29:34;;;;;;;;;;;;;;;20.01;39.07;101051.66;4998085;28;19930;-69
2022/10/06 08:32:00;;;;;;;;;;;;;;;19.71;39.31;101061.66;4998544;28;19928;-69
2022/10/06 08:34:25;;;;;;;;;;;;;;;20.06;39.05;101051.91;4999434;28;19941;-69
2022/10/06 08:36:51;;;;;;;;;;;;;;;20.11;39.01;101045.97;4998006;28;19918;-69
2022/10/06 08:39:17;;;;;;;;;;;;;;;20.29;38.62;101044.47;4998470;28;20211;-69
2022/10/06 08:41:47;;;;;;;;;;;;;;;20.14;38.85;101049.09;4997482;28;20203;-69
2022/10/06 08:44:17;;;;;;;;;;;;;;;20.35;38.54;101042.88;5001760;28;20245;-69
2022/10/06 08:46:53;;;;;;;;;;;;;;;20.27;38.05;101051.91;5002110;28;20147;-69
2022/10/06 08:49:20;;;;;;;;;;;;;;;20.39;37.79;101039.63;5002082;28;20217;-69
2022/10/06 08:52:04;;;;;;;;;;;;;;;20.72;37.08;101042.56;5000756;28;19918;-69
2022/10/06 08:54:48;;;;;;;;;;;;;;;20.91;36.93;101043.75;5000933;28;19922;-69
2022/10/06 08:57:18;;;;;;;;;;;;;;;20.82;36.71;101042.25;5001764;28;19926;-69
2022/10/06 08:59:45;;;;;;;;;;;;;;;20.59;37.60;101036.25;5001469;28;19929;-69
2022/10/06 09:02:23;;;;;;;;;;;;;;;20.61;37.23;101036.88;4990275;28;19921;-69
2022/10/06 09:04:49;;;;;;;;;;;;;;;20.56;37.30;101033.94;5000511;28;19926;-69
2022/10/06 09:07:20;;;;;;;;;;;;;;;20.86;36.27;101037.28;5002601;28;20198;-69
2022/10/06 09:09:50;;;;;;;;;;;;;;;20.73;36.58;101020.00;5002114;28;19933;-69
2022/10/06 09:12:34;;;;;;;;;;;;;;;20.63;37.16;101026.75;4999199;28;20084;-69
2022/10/06 09:15:09;;;;;;;;;;;;;;;20.43;36.80;101023.09;5000782;28;19921;-69
2022/10/06 09:17:37;;;;;;;;;;;;;;;20.86;36.79;101023.81;5001834;28;19961;-69
2022/10/06 09:20:03;;;;;;;;;;;;;;;20.90;35.80;101020.53;5000887;28;19986;-69
2022/10/06 09:22:30;;;;;;;;;;;;;;;20.88;35.77;101014.53;5002599;28;20115;-69
2022/10/06 09:25:07;;;;;;;;;;;;;;;20.38;36.63;101007.50;5002757;28;19938;-69
2022/10/06 09:27:35;;;;;;;;;;;;;;;20.22;37.05;101008.63;5001006;28;19984;-69
2022/10/06 09:30:00;;;;;;;;;;;;;;;20.11;36.98;101011.84;4998535;28;19922;-69
2022/10/06 09:32:27;;;;;;;;;;;;;;;20.26;37.07;101004.50;5002077;28;19918;-69
2022/10/06 09:34:58;;;;;;;;;;;;;;;20.10;36.61;101002.09;5000114;28;19985;-69
2022/10/06 09:37:24;;;;;;;;;;;;;;;20.11;37.60;101000.25;5001422;28;19918;-69
2022/10/06 09:39:50;;;;;;;;;;;;;;;20.07;37.59;101003.31;4984811;28;19965;-69
2022/10/06 09:42:28;;;;;;;;;;;;;;;20.12;37.19;100975.84;5001145;28;20254;-69
2022/10/06 09:44:56;;;;;;;;;;;;;;;20.23;37.49;100996.00;5001136;28;20125;-69
2022/10/06 09:47:21;;;;;;;;;;;;;;;20.46;36.78;100998.47;5000994;28;19918;-69
2022/10/06 09:50:05;;;;;;;;;;;;;;;20.52;37.27;100993.16;5001470;28;19922;-69
2022/10/06 09:52:31;;;;;;;;;;;;;;;20.70;36.80;100995.34;5001099;28;19921;-69
2022/10/06 09:55:16;;;;;;;;;;;;;;;20.92;36.00;100988.88;5001545;28;19968;-69
2022/10/06 09:57:48;;;;;;;;;;;;;;;20.83;36.57;100983.84;5001071;28;20115;-69
2022/10/06 10:00:29;;;;;;;;;;;;;;;20.85;37.18;100988.00;5001475;28;19949;-69
2022/10/06 10:03:00;;;;;;;;;;;;;;;20.92;36.90;100986.16;5001233;28;19922;-71
2022/10/06 10:05:26;;;;;;;;;;;;;;;20.97;36.61;100980.19;5001244;28;19918;-69
2022/10/06 10:08:03;;;;;;;;;;;;;;;20.88;36.03;100978.69;5000441;28;20208;-69
2022/10/06 10:10:29;;;;;;;;;;;;;;;21.04;36.26;100970.28;5000414;28;20116;-71
2022/10/06 10:12:56;;;;;;;;;;;;;;;20.83;36.49;100968.53;5000709;28;19918;-71
2022/10/06 10:15:21;;;;;;;;;;;;;;;20.71;37.21;100970.09;5001345;28;19953;-69
2022/10/06 10:17:46;;;;;;;;;;;;;;;20.99;36.70;100959.28;5000669;28;19964;-69
2022/10/06 10:20:24;;;;;;;;;;;;;;;21.11;35.61;100960.38;5000473;28;20279;-69
2022/10/06 10:22:51;;;;;;;;;;;;;;;20.81;35.60;100946.34;5000496;28;19925;-71
2022/10/06 10:25:28;;;;;;;;;;;;;;;20.78;36.82;100953.97;5001057;28;19917;-71
2022/10/06 10:28:18;;;;;;;;;;;;;;;21.07;36.47;100939.41;5000638;28;20435;-71
2022/10/06 10:33:36;;;;;;;;;;;;;;;21.33;35.88;100931.44;5090608;22;20221;-75
2022/10/06 10:36:02;;;;;;;;;;;;;;;20.97;35.73;100934.41;4995799;28;19922;-75
2022/10/06 10:38:29;;;;;;;;;;;;;;;20.99;35.63;100924.28;4998736;28;19918;-74
2022/10/06 10:41:01;;;;;;;;;;;;;;;21.33;34.78;100923.38;4997571;28;19933;-75
2022/10/06 10:43:53;;;;;;;;;;;;;;;21.12;35.02;100915.41;4998594;28;20354;-75
2022/10/06 10:46:27;;;;;;;;;;;;;;;21.13;35.75;100915.22;4984671;28;19969;-75
2022/10/06 10:49:12;;;;;;;;;;;;;;;21.07;35.71;100913.31;4996531;28;19932;-75
2022/10/06 10:51:44;;;;;;;;;;;;;;;21.22;35.60;100902.38;4996015;28;19928;-75
2022/10/06 10:54:15;;;;;;;;;;;;;;;21.17;35.46;100904.84;4998678;28;19972;-75
2022/10/06 10:56:42;;;;;;;;;;;;;;;21.40;34.64;100897.28;4996230;28;20142;-75
2022/10/06 10:59:14;;;;;;;;;;;;;;;21.18;35.95;100896.56;4996656;28;20232;-75
2022/10/06 11:01:58;;;;;;;;;;;;;;;21.21;35.82;100895.34;5009537;28;19969;-75
2022/10/06 11:04:23;;;;;;;;;;;;;;;21.34;35.57;100884.63;4996108;28;19917;-75
2022/10/06 11:07:28;;;;;;;;;;;;;;;21.46;34.67;100887.53;4994937;28;20249;-75
2022/10/06 11:10:04;;;;;;;;;;;;;;;21.29;35.23;100876.31;4956974;29;19958;-75
2022/10/06 11:12:48;;;;;;;;;;;;;;;21.37;33.69;100875.31;4955416;29;20197;-75
2022/10/06 11:15:32;;;;;;;;;;;;;;;21.35;34.88;100870.94;4982905;28;20257;-75
2022/10/06 11:18:06;;;;;;;;;;;;;;;21.50;33.85;100873.44;5012958;28;20123;-75
2022/10/06 11:20:43;;;;;;;;;;;;;;;21.59;33.78;100869.50;4998228;28;19926;-75
2022/10/06 11:23:18;;;;;;;;;;;;;;;21.31;34.08;100861.63;4997568;28;20021;-75
2022/10/06 11:25:52;;;;;;;;;;;;;;;21.38;33.92;100864.31;4998405;28;19924;-75
2022/10/06 11:28:23;;;;;;;;;;;;;;;21.12;34.04;100853.47;4993357;28;19926;-75
2022/10/06 11:31:02;;;;;;;;;;;;;;;21.35;34.04;100854.78;5011296;28;19925;-75
2022/10/06 11:33:35;;;;;;;;;;;;;;;21.49;33.94;100857.47;4993547;28;19917;-75
2022/10/06 11:36:02;;;;;;;;;;;;;;;21.59;33.50;100847.13;5004591;28;19929;-75
2022/10/06 11:38:36;;;;;;;;;;;;;;;21.47;32.84;100843.38;4994560;28;19933;-75
2022/10/06 11:41:07;;;;;;;;;;;;;;;21.27;33.30;100837.97;4994066;28;19952;-75
2022/10/06 11:43:44;;;;;;;;;;;;;;;21.17;33.80;100838.34;4993244;28;19933;-75
2022/10/06 11:46:10;;;;;;;;;;;;;;;21.12;33.06;100838.13;4996308;28;19922;-75
2022/10/06 11:48:35;;;;;;;;;;;;;;;21.15;32.84;100836.91;4994839;28;20266;-75
2022/10/06 11:51:13;;;;;;;;;;;;;;;21.13;32.80;100831.72;5000220;28;20103;-75
2022/10/06 11:53:39;;;;;;;;;;;;;;;21.38;32.98;100823.91;5017992;28;19948;-75
2022/10/06 11:56:16;;;;;;;;;;;;;;;21.26;33.02;100821.00;5001538;28;19968;-75
2022/10/06 11:58:50;;;;;;;;;;;;;;;21.15;33.30;100812.66;5002011;28;19917;-75
2022/10/06 12:01:35;;;;;;;;;;;;;;;21.12;32.89;100813.91;5018702;28;19921;-75
2022/10/06 12:04:06;;;;;;;;;;;;;;;21.33;31.50;100807.53;5018945;28;19984;-75
2022/10/06 12:06:40;;;;;;;;;;;;;;;21.28;32.37;100807.31;5002033;28;19980;-75
2022/10/06 12:09:24;;;;;;;;;;;;;;;21.13;32.17;100803.97;5002557;28;19956;-75
2022/10/06 12:11:50;;;;;;;;;;;;;;;21.30;30.99;100805.25;5016805;28;20234;-75
2022/10/06 12:14:34;;;;;;;;;;;;;;;21.16;30.75;100796.28;5002046;28;20335;-75
2022/10/06 12:17:18;;;;;;;;;;;;;;;21.29;30.83;100800.91;5002089;28;19921;-75
2022/10/06 12:19:56;;;;;;;;;;;;;;;21.44;30.86;100787.22;5000395;28;19922;-75
2022/10/06 12:22:30;;;;;;;;;;;;;;;21.42;31.29;100790.13;5000946;28;19947;-75
2022/10/06 12:24:58;;;;;;;;;;;;;;;21.55;31.13;100784.72;5002287;28;20091;-75
2022/10/06 12:27:29;;;;;;;;;;;;;;;21.47;31.21;100784.09;5001017;28;20473;-75
2022/10/06 12:30:01;;;;;;;;;;;;;;;21.15;30.73;100781.16;5002385;28;19922;-75
2022/10/06 12:32:33;;;;;;;;;;;;;;;21.42;30.54;100776.66;5001503;28;19922;-75
2022/10/06 12:35:07;;;;;;;;;;;;;;;21.38;30.79;100775.41;5002129;28;20138;-75
2022/10/06 12:37:35;;;;;;;;;;;;;;;21.39;30.58;100777.06;5001892;28;19929;-75
2022/10/06 12:40:19;;;;;;;;;;;;;;;21.54;30.00;100774.16;5002215;28;20211;-75
2022/10/06 12:42:44;;;;;;;;;;;;;;;21.47;30.18;100770.63;5000513;28;19964;-75
2022/10/06 12:45:14;;;;;;;;;;;;;;;21.50;29.90;100768.34;5002513;28;19918;-75
2022/10/06 12:47:42;;;;;;;;;;;;;;;21.44;30.79;100757.56;5001770;28;20183;-75
2022/10/06 12:50:13;;;;;;;;;;;;;;;21.51;31.06;100755.72;5002062;28;19925;-75
2022/10/06 12:52:57;;;;;;;;;;;;;;;21.63;30.85;100752.16;5002312;28;20210;-75
2022/10/06 12:55:26;;;;;;;;;;;;;;;21.70;29.72;100751.31;5002085;28;19933;-75
2022/10/06 12:57:52;;;;;;;;;;;;;;;21.73;29.47;100748.22;5002060;28;19922;-75